Time;durP1;ratioP1;P1;durP2;ratioP2;P2;SDS_P1;SDS_P2;PMS_P1;PMS_P2;Temp;Humidity;BMP_temperature;BMP_pressure;BME280_temperature;BME280_humidity;BME280_pressure;Samples;Min_cycle;Max_cycle;Signal;HPM_P1;HPM_P2
2022/09/04 00:00:20;;;;;;;3.22;2.97;;;19.20;99.90;;;;;;5063795;28;20221;-78
2022/09/04 00:03:14;;;;;;;3.10;2.80;;;19.30;99.90;;;;;;5064289;28;20207;-78
2022/09/04 00:05:48;;;;;;;3.42;3.13;;;19.20;99.90;;;;;;5064002;28;20210;-78
2022/09/04 00:08:28;;;;;;;3.70;3.17;;;19.20;99.90;;;;;;5070596;28;20245;-78
2022/09/04 00:11:04;;;;;;;3.50;3.20;;;18.70;99.90;;;;;;5069366;28;20225;-78
2022/09/04 00:13:37;;;;;;;3.25;2.90;;;18.50;99.90;;;;;;5057085;28;20183;-78
2022/09/04 00:16:09;;;;;;;2.80;2.60;;;18.50;99.90;;;;;;5068492;28;20205;-78
2022/09/04 00:18:40;;;;;;;3.40;3.00;;;18.50;99.90;;;;;;5056034;28;20581;-78
2022/09/04 00:21:20;;;;;;;3.00;2.80;;;18.70;99.90;;;;;;5068017;28;20541;-78
2022/09/04 00:23:53;;;;;;;2.60;2.40;;;18.60;99.90;;;;;;5065949;28;20193;-78
2022/09/04 00:26:39;;;;;;;3.10;2.80;;;18.70;99.90;;;;;;5048011;28;20257;-78
2022/09/04 00:29:14;;;;;;;2.95;2.75;;;18.60;99.90;;;;;;5052453;28;20225;-78
2022/09/04 00:31:48;;;;;;;2.92;2.67;;;18.50;99.90;;;;;;5062004;28;20654;-78
2022/09/04 00:34:32;;;;;;;2.60;2.40;;;18.50;99.90;;;;;;5046733;28;20199;-78
2022/09/04 00:37:05;;;;;;;2.72;2.53;;;18.50;99.90;;;;;;5067541;28;20198;-78
2022/09/04 00:39:38;;;;;;;3.45;2.47;;;18.40;99.90;;;;;;5051342;28;20676;-78
2022/09/04 00:42:22;;;;;;;3.88;2.53;;;18.20;99.90;;;;;;5063451;28;20203;-78
2022/09/04 00:45:12;;;;;;;4.30;2.80;;;18.30;99.90;;;;;;5057468;28;20194;-78
2022/09/04 00:48:14;;;;;;;4.00;2.80;;;18.40;99.90;;;;;;5046073;28;20203;-78
2022/09/04 00:51:14;;;;;;;2.50;2.30;;;18.50;99.90;;;;;;5038109;28;20213;-78
2022/09/04 00:53:58;;;;;;;4.45;2.67;;;18.50;99.90;;;;;;5053583;28;20210;-78
2022/09/04 00:57:12;;;;;;;2.35;2.15;;;18.50;99.90;;;;;;5069382;28;20218;-78
2022/09/04 01:00:02;;;;;;;3.13;2.85;;;18.50;99.90;;;;;;5040212;28;20702;-78
2022/09/04 01:02:43;;;;;;;2.50;2.30;;;18.50;99.90;;;;;;5062141;28;20200;-78
2022/09/04 01:05:24;;;;;;;3.58;3.28;;;18.50;99.90;;;;;;5063890;28;20198;-78
2022/09/04 01:08:04;;;;;;;3.75;2.95;;;18.50;99.90;;;;;;5048493;28;20202;-78
2022/09/04 01:10:40;;;;;;;3.55;3.20;;;18.50;99.90;;;;;;5065139;28;20194;-78
2022/09/04 01:13:12;;;;;;;4.13;3.50;;;18.50;99.90;;;;;;5051181;28;20233;-78
2022/09/04 01:15:45;;;;;;;3.55;3.25;;;18.40;99.90;;;;;;5047439;28;20205;-78
2022/09/04 01:18:18;;;;;;;4.55;3.10;;;18.50;99.90;;;;;;5051379;28;20198;-78
2022/09/04 01:21:10;;;;;;;3.83;3.53;;;18.50;99.90;;;;;;5065280;28;20652;-78
2022/09/04 01:23:56;;;;;;;5.28;3.67;;;18.40;99.90;;;;;;5063466;28;20195;-78
2022/09/04 01:26:34;;;;;;;3.22;2.97;;;18.30;99.90;;;;;;5050499;28;20202;-78
2022/09/04 01:29:15;;;;;;;3.95;3.63;;;18.30;99.90;;;;;;5049365;28;20222;-78
2022/09/04 01:31:52;;;;;;;3.75;3.40;;;18.40;99.90;;;;;;5047084;28;20222;-78
2022/09/04 01:34:35;;;;;;;3.75;3.40;;;18.40;99.90;;;;;;5051192;28;20202;-78
2022/09/04 01:37:15;;;;;;;4.07;3.67;;;18.50;99.90;;;;;;5046801;28;20683;-78
2022/09/04 01:39:46;;;;;;;4.00;3.63;;;18.30;99.90;;;;;;5045865;28;20219;-78
2022/09/04 01:42:23;;;;;;;3.78;3.47;;;18.20;99.90;;;;;;5050728;28;20197;-78
2022/09/04 01:44:50;;;;;;;3.10;2.90;;;18.30;99.90;;;;;;5041734;28;20202;-78
2022/09/04 01:47:25;;;;;;;5.90;4.32;;;18.30;99.90;;;;;;5045531;28;20194;-78
2022/09/04 01:50:02;;;;;;;4.03;3.22;;;18.30;99.90;;;;;;5046405;28;20221;-78
2022/09/04 01:52:41;;;;;;;6.03;3.90;;;18.20;99.90;;;;;;5064594;28;20225;-78
2022/09/04 01:55:18;;;;;;;3.95;3.55;;;18.20;99.90;;;;;;5043420;28;20410;-78
2022/09/04 01:58:04;;;;;;;3.70;3.30;;;18.20;99.90;;;;;;5044650;28;20199;-78
2022/09/04 02:00:36;;;;;;;4.45;3.63;;;18.10;99.90;;;;;;5048290;28;20202;-78
2022/09/04 02:03:18;;;;;;;4.13;3.50;;;18.10;99.90;;;;;;5041007;28;20195;-78
2022/09/04 02:06:00;;;;;;;3.38;3.10;;;18.10;99.90;;;;;;5042477;28;20194;-78
2022/09/04 02:08:48;;;;;;;5.15;3.88;;;18.10;99.90;;;;;;5044876;28;20233;-78
2022/09/04 02:11:18;;;;;;;3.42;3.13;;;18.10;99.90;;;;;;5048998;28;20285;-78
2022/09/04 02:14:05;;;;;;;3.80;3.50;;;18.10;99.90;;;;;;5049846;28;20214;-78
2022/09/04 02:16:43;;;;;;;4.30;3.85;;;18.00;99.90;;;;;;5047155;28;20203;-78
2022/09/04 02:19:20;;;;;;;3.75;3.45;;;17.90;99.90;;;;;;5064685;28;20222;-78
2022/09/04 02:22:00;;;;;;;3.85;3.55;;;17.90;99.90;;;;;;5044704;28;20198;-78
2022/09/04 02:24:37;;;;;;;5.60;5.10;;;18.00;99.90;;;;;;5048270;28;20536;-78
2022/09/04 02:27:08;;;;;;;7.40;6.60;;;18.10;99.90;;;;;;5065894;28;20213;-78
2022/09/04 02:29:45;;;;;;;7.25;6.43;;;18.20;99.90;;;;;;5065202;28;20232;-78
2022/09/04 02:32:19;;;;;;;7.03;6.30;;;18.10;99.90;;;;;;5047757;28;20225;-78
2022/09/04 02:34:52;;;;;;;7.10;5.20;;;17.90;99.90;;;;;;5064974;28;20194;-78
2022/09/04 02:37:28;;;;;;;5.15;4.65;;;17.60;99.90;;;;;;5049547;28;20202;-78
2022/09/04 02:40:10;;;;;;;3.95;3.60;;;17.50;99.90;;;;;;5047016;28;20218;-78
2022/09/04 02:42:47;;;;;;;4.88;3.80;;;17.40;99.90;;;;;;5045612;28;20552;-78
2022/09/04 02:45:24;;;;;;;4.28;3.90;;;17.40;99.90;;;;;;5048301;28;20205;-78
2022/09/04 02:48:00;;;;;;;3.90;3.60;;;17.20;99.90;;;;;;5052563;28;20202;-78
2022/09/04 02:50:44;;;;;;;4.30;3.90;;;17.20;99.90;;;;;;5047068;28;20876;-78
2022/09/04 02:53:23;;;;;;;4.18;3.78;;;17.30;99.90;;;;;;5062936;28;20217;-78
2022/09/04 02:56:08;;;;;;;4.05;3.72;;;17.40;99.90;;;;;;5059224;28;20201;-78
2022/09/04 02:58:48;;;;;;;3.90;3.60;;;17.60;99.90;;;;;;5051658;28;20239;-78
2022/09/04 03:01:24;;;;;;;5.53;3.70;;;17.50;99.90;;;;;;5044146;28;20206;-78
2022/09/04 03:04:00;;;;;;;4.03;3.72;;;17.40;99.90;;;;;;5043196;28;20190;-78
2022/09/04 03:06:44;;;;;;;4.18;3.70;;;17.40;99.90;;;;;;5045790;28;20205;-78
2022/09/04 03:09:19;;;;;;;4.10;3.80;;;17.40;99.90;;;;;;5046487;28;20588;-78
2022/09/04 03:11:53;;;;;;;4.68;4.28;;;17.40;99.90;;;;;;5046438;28;20221;-78
2022/09/04 03:14:33;;;;;;;4.05;3.70;;;17.40;99.90;;;;;;5057921;28;20225;-78
2022/09/04 03:17:10;;;;;;;4.15;3.85;;;17.40;99.90;;;;;;5060512;28;20208;-78
2022/09/04 03:19:44;;;;;;;4.40;4.00;;;17.50;99.90;;;;;;5040138;28;20227;-78
2022/09/04 03:22:17;;;;;;;4.43;4.03;;;17.30;99.90;;;;;;5048886;28;20202;-78
2022/09/04 03:25:06;;;;;;;4.10;3.80;;;17.30;99.90;;;;;;5046315;28;20627;-78
2022/09/04 03:27:35;;;;;;;4.18;3.78;;;17.30;99.90;;;;;;5042878;28;20218;-78
2022/09/04 03:30:06;;;;;;;4.68;4.25;;;17.40;99.90;;;;;;5048825;28;20210;-78
2022/09/04 03:32:45;;;;;;;4.00;3.70;;;17.40;99.90;;;;;;5035170;28;20600;-78
2022/09/04 03:35:22;;;;;;;5.10;4.00;;;17.30;99.90;;;;;;5043727;28;20661;-78
2022/09/04 03:38:03;;;;;;;3.65;3.35;;;17.30;99.90;;;;;;5048251;28;20204;-78
2022/09/04 03:40:37;;;;;;;4.70;4.22;;;17.40;99.90;;;;;;5041348;28;20198;-78
2022/09/04 03:43:23;;;;;;;4.50;4.10;;;17.50;99.90;;;;;;5065895;28;20197;-78
2022/09/04 03:45:58;;;;;;;6.00;3.75;;;17.40;99.90;;;;;;5064782;28;20194;-78
2022/09/04 03:48:52;;;;;;;4.50;4.10;;;17.30;99.90;;;;;;5064722;28;20221;-78
2022/09/04 03:51:31;;;;;;;4.63;4.25;;;17.30;99.90;;;;;;5047671;28;20664;-78
2022/09/04 03:54:07;;;;;;;4.97;4.15;;;17.10;99.90;;;;;;5066953;28;20218;-78
2022/09/04 03:56:51;;;;;;;6.22;4.38;;;17.10;99.90;;;;;;5067724;28;20204;-78
2022/09/04 03:59:37;;;;;;;7.43;4.45;;;17.20;99.90;;;;;;5045840;28;20229;-78
2022/09/04 04:02:12;;;;;;;4.90;4.30;;;17.30;99.90;;;;;;5041592;28;20201;-78
2022/09/04 04:05:12;;;;;;;4.40;4.00;;;17.20;99.90;;;;;;5045492;28;20205;-78
2022/09/04 04:07:51;;;;;;;3.97;3.63;;;17.20;99.90;;;;;;5063875;28;20217;-78
2022/09/04 04:10:32;;;;;;;4.97;4.47;;;17.20;99.90;;;;;;5051488;28;20218;-80
2022/09/04 04:13:16;;;;;;;4.70;4.30;;;17.20;99.90;;;;;;5064313;28;20233;-80
2022/09/04 04:16:02;;;;;;;4.25;3.85;;;17.30;99.90;;;;;;5057279;28;20199;-79
2022/09/04 04:18:51;;;;;;;4.70;4.30;;;17.30;99.90;;;;;;5047928;28;20250;-79
2022/09/04 04:21:31;;;;;;;4.32;4.00;;;17.30;99.90;;;;;;5050317;28;20209;-79
2022/09/04 04:24:11;;;;;;;5.07;4.18;;;17.20;99.90;;;;;;5045295;28;20560;-79
2022/09/04 04:26:51;;;;;;;4.45;4.05;;;17.20;99.90;;;;;;5045943;28;20669;-79
2022/09/04 04:29:50;;;;;;;4.70;4.30;;;17.20;99.90;;;;;;5049437;28;20222;-79
2022/09/04 04:32:32;;;;;;;4.40;4.00;;;17.20;99.90;;;;;;5012080;28;20217;-80
2022/09/04 04:35:12;;;;;;;5.40;4.85;;;17.10;99.90;;;;;;5063697;28;20719;-79
2022/09/04 04:37:52;;;;;;;4.90;4.50;;;17.00;99.90;;;;;;5048231;28;20206;-79
2022/09/04 04:40:32;;;;;;;4.47;4.07;;;16.90;99.90;;;;;;5052526;28;20214;-79
2022/09/04 04:43:06;;;;;;;4.22;3.88;;;16.90;99.90;;;;;;5061332;28;20209;-79
2022/09/04 04:45:49;;;;;;;4.65;4.22;;;17.00;99.90;;;;;;5050532;28;20189;-79
2022/09/04 04:48:28;;;;;;;5.45;4.10;;;17.10;99.90;;;;;;5047213;28;20191;-80
2022/09/04 04:51:06;;;;;;;5.03;4.63;;;17.00;99.90;;;;;;5048294;28;20213;-79
2022/09/04 04:53:42;;;;;;;4.90;4.40;;;17.00;99.90;;;;;;5043671;28;20206;-79
2022/09/04 04:56:18;;;;;;;5.00;4.50;;;16.90;99.90;;;;;;5050305;28;20224;-81
2022/09/04 04:59:03;;;;;;;4.40;4.00;;;16.90;99.90;;;;;;5045606;28;20746;-80
2022/09/04 05:01:44;;;;;;;5.40;4.20;;;16.90;99.90;;;;;;5043995;28;20586;-80
2022/09/04 05:04:22;;;;;;;4.30;4.00;;;16.90;99.90;;;;;;5061598;28;20202;-80
2022/09/04 05:07:03;;;;;;;4.45;4.05;;;16.90;99.90;;;;;;5045020;28;20206;-80
2022/09/04 05:09:37;;;;;;;4.90;4.20;;;16.90;99.90;;;;;;5068935;28;20239;-80
2022/09/04 05:12:16;;;;;;;5.25;4.20;;;16.90;99.90;;;;;;5059533;28;20216;-79
2022/09/04 05:14:52;;;;;;;4.50;3.85;;;17.00;99.90;;;;;;5059863;28;20206;-80
2022/09/04 05:17:34;;;;;;;4.65;4.25;;;17.00;99.90;;;;;;5051939;28;20202;-80
2022/09/04 05:20:24;;;;;;;4.47;4.07;;;17.00;99.90;;;;;;5069147;28;20714;-79
2022/09/04 05:23:03;;;;;;;4.80;4.30;;;16.90;99.90;;;;;;5045522;28;20199;-79
2022/09/04 05:25:53;;;;;;;4.75;4.35;;;16.90;99.90;;;;;;5050319;28;20203;-79
2022/09/04 05:28:33;;;;;;;4.78;4.28;;;17.00;99.90;;;;;;5050890;28;21028;-80
2022/09/04 05:31:16;;;;;;;4.50;4.10;;;16.90;99.90;;;;;;5043738;28;20209;-80
2022/09/04 05:33:56;;;;;;;4.93;4.45;;;16.80;99.90;;;;;;5044649;28;20210;-80
2022/09/04 05:36:32;;;;;;;4.65;4.35;;;16.90;99.90;;;;;;5049036;28;20224;-81
2022/09/04 05:39:09;;;;;;;5.40;4.90;;;17.00;99.90;;;;;;5065181;28;20237;-81
2022/09/04 05:41:55;;;;;;;4.95;4.45;;;17.00;99.90;;;;;;5045568;28;20201;-79
2022/09/04 05:44:38;;;;;;;4.80;4.40;;;17.10;99.90;;;;;;5051798;28;20212;-79
2022/09/04 05:47:16;;;;;;;5.35;4.85;;;17.20;99.90;;;;;;5064621;28;20217;-79
2022/09/04 05:50:16;;;;;;;5.43;4.80;;;17.30;99.90;;;;;;5056070;28;20226;-79
2022/09/04 05:53:09;;;;;;;4.80;4.40;;;17.40;99.90;;;;;;5064050;28;20206;-79
2022/09/04 05:56:06;;;;;;;5.18;4.60;;;17.60;99.90;;;;;;5050373;28;20240;-79
2022/09/04 05:58:59;;;;;;;5.95;4.57;;;17.80;99.90;;;;;;5044834;28;20221;-80
2022/09/04 06:01:49;;;;;;;4.93;4.30;;;17.80;99.90;;;;;;5056036;28;20198;-79
2022/09/04 06:04:36;;;;;;;6.20;5.00;;;17.90;99.90;;;;;;5046615;28;20202;-79
2022/09/04 06:07:12;;;;;;;4.60;4.18;;;18.20;99.90;;;;;;5044473;28;20206;-79
2022/09/04 06:09:53;;;;;;;4.40;4.00;;;18.30;99.90;;;;;;5063296;28;20225;-79
2022/09/04 06:12:35;;;;;;;5.00;4.60;;;18.30;99.90;;;;;;5062784;28;20675;-79
2022/09/04 06:15:29;;;;;;;4.88;4.38;;;18.40;99.90;;;;;;5066727;28;20222;-79
2022/09/04 06:18:16;;;;;;;4.75;3.83;;;18.40;99.90;;;;;;5043229;28;20202;-79
2022/09/04 06:21:04;;;;;;;4.68;4.15;;;18.60;99.90;;;;;;5046461;28;20202;-79
2022/09/04 06:24:07;;;;;;;5.80;4.22;;;18.70;99.90;;;;;;5062824;28;20201;-80
2022/09/04 06:26:53;;;;;;;5.20;4.40;;;18.80;99.90;;;;;;5048689;28;20198;-79
2022/09/04 06:29:56;;;;;;;4.90;4.45;;;18.90;99.90;;;;;;5046133;28;20225;-79
2022/09/04 06:32:54;;;;;;;4.85;4.13;;;18.90;99.90;;;;;;5038009;28;20209;-79
2022/09/04 06:35:44;;;;;;;7.18;4.88;;;19.10;99.90;;;;;;5029302;28;20225;-79
2022/09/04 06:38:25;;;;;;;5.00;4.60;;;19.30;99.90;;;;;;5048954;28;20213;-81
2022/09/04 06:41:07;;;;;;;4.88;4.32;;;19.50;99.90;;;;;;5060841;28;20644;-79
2022/09/04 06:43:42;;;;;;;5.45;4.78;;;19.40;99.90;;;;;;5060883;28;20203;-80
2022/09/04 06:46:19;;;;;;;4.93;4.38;;;19.40;99.90;;;;;;5047488;28;20198;-80
2022/09/04 06:48:59;;;;;;;4.68;4.28;;;19.40;99.90;;;;;;5059295;28;20221;-79
2022/09/04 06:51:46;;;;;;;5.30;4.63;;;19.40;99.90;;;;;;5048950;28;20206;-80
2022/09/04 06:54:21;;;;;;;4.53;4.13;;;19.60;99.90;;;;;;5063490;28;20214;-79
2022/09/04 06:57:23;;;;;;;4.22;3.63;;;19.70;99.90;;;;;;5047388;28;20194;-79
2022/09/04 07:00:09;;;;;;;4.35;4.03;;;19.90;99.90;;;;;;5042131;28;20232;-79
2022/09/04 07:03:01;;;;;;;4.03;3.63;;;20.00;99.90;;;;;;5045541;28;20668;-79
2022/09/04 07:05:37;;;;;;;3.90;3.55;;;20.00;99.90;;;;;;5044587;28;20203;-80
2022/09/04 07:08:17;;;;;;;5.00;3.55;;;20.20;99.90;;;;;;5061018;28;20195;-79
2022/09/04 07:10:59;;;;;;;3.97;3.65;;;20.10;99.90;;;;;;5062248;28;20562;-79
2022/09/04 07:13:47;;;;;;;4.80;3.63;;;20.10;99.90;;;;;;5048895;28;20202;-79
2022/09/04 07:16:41;;;;;;;4.05;3.60;;;20.30;99.90;;;;;;5068624;28;20602;-79
2022/09/04 07:19:45;;;;;;;4.00;3.35;;;20.40;99.90;;;;;;5049893;28;20229;-79
2022/09/04 07:22:47;;;;;;;3.53;3.22;;;20.40;99.90;;;;;;5068601;28;20212;-80
2022/09/04 07:25:25;;;;;;;4.03;3.70;;;20.40;99.90;;;;;;5028377;28;20653;-79
2022/09/04 07:28:11;;;;;;;4.20;3.60;;;20.30;99.90;;;;;;5060207;28;20560;-79
2022/09/04 07:30:45;;;;;;;4.07;3.30;;;20.40;99.90;;;;;;5050046;28;20202;-79
2022/09/04 07:33:19;;;;;;;4.30;3.47;;;20.60;99.90;;;;;;5064210;28;20198;-80
2022/09/04 07:35:55;;;;;;;5.20;3.60;;;20.60;99.90;;;;;;5058299;28;20222;-80
2022/09/04 07:38:33;;;;;;;5.53;3.85;;;20.70;99.90;;;;;;5046788;28;20237;-79
2022/09/04 07:41:11;;;;;;;4.03;3.72;;;20.70;99.90;;;;;;5041327;28;20210;-79
2022/09/04 07:43:46;;;;;;;3.88;3.58;;;20.60;99.90;;;;;;5046608;28;20202;-80
2022/09/04 07:46:21;;;;;;;4.72;3.60;;;20.70;99.90;;;;;;5044370;28;20198;-80
2022/09/04 07:48:57;;;;;;;3.83;3.47;;;20.80;99.90;;;;;;5063010;28;20217;-80
2022/09/04 07:51:31;;;;;;;3.50;3.10;;;20.90;99.90;;;;;;5047366;28;20198;-79
2022/09/04 07:54:17;;;;;;;3.42;3.20;;;21.00;99.90;;;;;;5042158;28;20200;-79
2022/09/04 07:57:10;;;;;;;3.85;3.40;;;21.10;99.90;;;;;;5042844;28;20218;-79
2022/09/04 08:00:01;;;;;;;3.50;3.13;;;21.10;99.90;;;;;;5057148;28;20218;-79
2022/09/04 08:02:50;;;;;;;3.55;3.20;;;21.20;99.90;;;;;;5054706;28;20206;-80
2022/09/04 08:05:27;;;;;;;4.40;3.33;;;21.30;99.90;;;;;;5042985;28;20649;-79
2022/09/04 08:08:25;;;;;;;3.00;2.80;;;21.30;99.90;;;;;;5062761;28;20206;-79
2022/09/04 08:11:39;;;;;;;3.97;3.25;;;21.40;99.90;;;;;;5038866;28;20206;-78
2022/09/04 08:14:46;;;;;;;3.35;3.05;;;21.40;99.90;;;;;;5039791;28;20688;-78
2022/09/04 08:17:52;;;;;;;3.53;3.22;;;21.50;99.90;;;;;;5040428;28;20201;-78
2022/09/04 08:20:38;;;;;;;4.45;3.63;;;21.80;99.90;;;;;;5039085;28;20225;-79
2022/09/04 08:23:25;;;;;;;5.63;3.50;;;21.80;99.90;;;;;;5037979;28;20230;-79
2022/09/04 08:26:10;;;;;;;3.45;2.70;;;21.80;99.90;;;;;;5039095;28;20194;-79
2022/09/04 08:29:04;;;;;;;3.97;3.67;;;21.90;99.90;;;;;;5050066;28;20225;-79
2022/09/04 08:31:42;;;;;;;3.70;3.40;;;21.70;99.90;;;;;;5044592;28;20190;-79
2022/09/04 08:34:39;;;;;;;4.55;3.80;;;21.80;99.90;;;;;;5046464;28;20198;-78
2022/09/04 08:37:20;;;;;;;3.00;2.80;;;21.90;99.90;;;;;;5063341;28;20198;-79
2022/09/04 08:40:01;;;;;;;4.70;3.17;;;22.20;99.90;;;;;;5044865;28;20214;-80
2022/09/04 08:43:07;;;;;;;4.25;3.10;;;22.30;99.90;;;;;;5050798;28;20213;-79
2022/09/04 08:46:10;;;;;;;4.13;3.33;;;22.50;99.90;;;;;;5030572;28;20213;-79
2022/09/04 08:49:10;;;;;;;3.72;2.80;;;22.40;99.90;;;;;;5065716;28;20217;-81
2022/09/04 08:52:13;;;;;;;4.85;3.28;;;22.50;99.90;;;;;;5047199;28;20194;-81
2022/09/04 08:55:08;;;;;;;4.40;4.00;;;22.40;99.90;;;;;;5061749;28;20202;-80
2022/09/04 08:57:56;;;;;;;4.07;3.67;;;22.40;99.90;;;;;;5063342;28;20205;-80
2022/09/04 09:00:42;;;;;;;3.58;3.28;;;22.40;99.90;;;;;;5044220;28;20215;-79
2022/09/04 09:03:40;;;;;;;3.25;2.97;;;22.60;99.90;;;;;;5065056;28;20202;-79
2022/09/04 09:06:48;;;;;;;4.07;3.00;;;22.60;99.90;;;;;;5045685;28;20205;-79
2022/09/04 09:09:54;;;;;;;5.30;2.97;;;22.80;99.90;;;;;;5045879;28;20351;-79
2022/09/04 09:12:59;;;;;;;4.25;3.85;;;22.90;99.90;;;;;;5063792;28;20214;-79
2022/09/04 09:15:40;;;;;;;4.20;3.80;;;22.70;99.90;;;;;;5043401;28;20213;-78
2022/09/04 09:18:30;;;;;;;3.85;3.47;;;22.50;99.90;;;;;;5045896;28;20202;-78
2022/09/04 09:21:07;;;;;;;3.60;3.30;;;22.60;99.90;;;;;;5058910;28;20203;-78
2022/09/04 09:23:44;;;;;;;6.43;3.38;;;22.70;99.90;;;;;;5044798;28;20194;-78
2022/09/04 09:26:33;;;;;;;3.50;3.20;;;22.80;99.90;;;;;;5058219;28;20209;-78
2022/09/04 09:29:43;;;;;;;3.95;3.45;;;22.70;99.90;;;;;;5059464;28;20222;-78
2022/09/04 09:32:55;;;;;;;3.25;2.95;;;22.70;99.90;;;;;;5054699;28;20198;-78
2022/09/04 09:36:11;;;;;;;4.55;3.70;;;22.90;99.90;;;;;;5045116;28;20206;-78
2022/09/04 09:38:59;;;;;;;3.63;3.33;;;23.10;99.90;;;;;;5011268;28;20230;-78
2022/09/04 09:41:58;;;;;;;3.83;3.42;;;23.30;99.90;;;;;;5039727;28;20231;-78
2022/09/04 09:45:12;;;;;;;4.72;3.67;;;23.40;99.90;;;;;;5057237;28;20199;-78
2022/09/04 09:48:17;;;;;;;4.20;3.80;;;23.50;99.90;;;;;;5042135;28;20207;-78
2022/09/04 09:51:13;;;;;;;3.92;3.53;;;23.60;99.90;;;;;;5057277;28;20194;-78
2022/09/04 09:54:28;;;;;;;4.43;3.60;;;23.60;99.90;;;;;;5055199;28;20194;-78
2022/09/04 09:57:32;;;;;;;3.58;3.28;;;23.60;99.90;;;;;;4964781;28;20223;-78
2022/09/04 10:00:11;;;;;;;4.53;3.78;;;23.60;99.90;;;;;;4967631;28;20224;-77
2022/09/04 10:03:23;;;;;;;3.85;3.38;;;23.60;99.90;;;;;;4964200;28;20192;-77
2022/09/04 10:06:20;;;;;;;3.85;3.55;;;23.70;99.90;;;;;;5032891;28;20197;-76
2022/09/04 10:09:13;;;;;;;5.70;3.60;;;24.00;99.90;;;;;;5041095;28;20607;-76
2022/09/04 10:12:33;;;;;;;4.30;3.58;;;23.90;99.90;;;;;;5046678;28;20198;-76
2022/09/04 10:15:27;;;;;;;3.95;3.65;;;23.80;99.90;;;;;;5041198;28;20204;-76
2022/09/04 10:18:43;;;;;;;4.88;4.47;;;24.10;99.90;;;;;;5061856;28;20194;-76
2022/09/04 10:21:36;;;;;;;5.85;4.20;;;24.10;99.90;;;;;;5003969;28;20200;-77
2022/09/04 10:24:32;;;;;;;3.92;3.63;;;24.30;99.90;;;;;;4970759;28;20215;-76
2022/09/04 10:27:34;;;;;;;3.38;3.10;;;24.60;99.90;;;;;;5043163;28;20205;-76
2022/09/04 10:30:06;;;;;;;4.03;3.40;;;25.00;99.90;;;;;;5050379;28;20229;-76
2022/09/04 10:32:57;;;;;;;3.97;3.58;;;25.00;99.30;;;;;;5044221;28;20192;-76
2022/09/04 10:35:28;;;;;;;3.88;3.50;;;25.00;98.80;;;;;;5060778;28;20218;-76
2022/09/04 10:38:21;;;;;;;3.80;3.47;;;25.00;98.30;;;;;;5048157;28;20557;-76
2022/09/04 10:41:34;;;;;;;3.35;3.05;;;25.30;98.40;;;;;;5048865;28;20202;-76
2022/09/04 10:44:32;;;;;;;3.40;3.03;;;25.30;98.50;;;;;;5000381;28;20201;-76
2022/09/04 10:47:12;;;;;;;3.08;2.88;;;25.20;98.30;;;;;;5037405;28;20197;-76
2022/09/04 10:50:03;;;;;;;4.22;3.65;;;25.00;98.60;;;;;;5040251;28;20228;-75
2022/09/04 10:52:53;;;;;;;4.35;3.63;;;24.70;99.80;;;;;;5055645;28;20214;-75
2022/09/04 10:55:41;;;;;;;4.28;3.83;;;24.50;99.90;;;;;;5049963;28;20203;-76
2022/09/04 10:58:31;;;;;;;3.95;2.70;;;24.50;99.90;;;;;;5052529;28;20186;-75
2022/09/04 11:01:21;;;;;;;3.55;3.08;;;24.60;99.90;;;;;;5038776;28;20566;-76
2022/09/04 11:04:12;;;;;;;3.28;2.97;;;24.50;99.90;;;;;;5052427;28;20213;-77
2022/09/04 11:07:11;;;;;;;3.22;2.97;;;24.90;99.60;;;;;;5040236;28;20210;-76
2022/09/04 11:09:56;;;;;;;3.38;3.10;;;25.20;98.40;;;;;;5040234;28;20222;-75
2022/09/04 11:12:46;;;;;;;2.65;2.45;;;25.40;97.70;;;;;;5055646;28;20217;-76
2022/09/04 11:15:40;;;;;;;3.92;3.00;;;25.60;96.60;;;;;;5053453;28;20653;-76
2022/09/04 11:18:46;;;;;;;3.65;3.05;;;25.80;95.00;;;;;;5039938;28;20694;-76
2022/09/04 11:21:46;;;;;;;3.15;2.75;;;25.90;93.70;;;;;;5056621;28;20209;-76
2022/09/04 11:24:54;;;;;;;3.03;2.83;;;26.20;93.00;;;;;;5052504;28;20202;-76
2022/09/04 11:28:03;;;;;;;3.15;2.95;;;26.50;93.00;;;;;;5055257;28;20960;-76
2022/09/04 11:30:47;;;;;;;3.45;3.08;;;26.50;92.50;;;;;;5026794;28;20202;-76
2022/09/04 11:33:53;;;;;;;3.03;2.78;;;25.90;93.50;;;;;;5041371;28;20198;-76
2022/09/04 11:36:59;;;;;;;3.45;3.15;;;26.10;93.90;;;;;;5032523;28;20206;-76
2022/09/04 11:40:02;;;;;;;2.78;2.58;;;25.90;93.80;;;;;;5052229;28;20230;-76
2022/09/04 11:42:40;;;;;;;3.08;2.78;;;25.70;94.00;;;;;;5034171;28;20858;-76
2022/09/04 11:45:34;;;;;;;3.00;2.80;;;25.60;94.00;;;;;;5029250;28;20217;-76
2022/09/04 11:48:40;;;;;;;3.13;2.83;;;25.60;94.00;;;;;;5054528;28;20193;-76
2022/09/04 11:51:50;;;;;;;2.90;2.58;;;25.40;94.20;;;;;;5037262;28;20698;-76
2022/09/04 11:54:46;;;;;;;3.38;2.92;;;25.30;95.00;;;;;;5037191;28;20205;-76
2022/09/04 11:57:22;;;;;;;3.00;2.72;;;25.50;94.30;;;;;;5050262;28;20210;-76
2022/09/04 12:00:11;;;;;;;5.15;2.90;;;25.70;94.30;;;;;;5038186;28;20221;-76
2022/09/04 12:03:16;;;;;;;3.45;2.83;;;25.60;94.50;;;;;;5031884;28;20207;-76
2022/09/04 12:06:03;;;;;;;3.55;3.25;;;25.30;94.70;;;;;;5021167;28;20206;-76
2022/09/04 12:09:13;;;;;;;3.20;3.00;;;25.40;94.70;;;;;;5046861;28;20230;-76
2022/09/04 12:12:17;;;;;;;6.25;2.90;;;25.30;95.00;;;;;;5041625;28;20202;-77
2022/09/04 12:15:10;;;;;;;3.10;2.80;;;25.20;95.50;;;;;;5041541;28;20218;-76
2022/09/04 12:18:09;;;;;;;3.05;2.85;;;25.30;95.70;;;;;;5065142;28;20217;-76
2022/09/04 12:21:19;;;;;;;3.00;2.67;;;25.20;95.60;;;;;;5061971;28;20202;-76
2022/09/04 12:24:13;;;;;;;2.78;2.58;;;25.60;94.90;;;;;;5049219;28;20199;-76
2022/09/04 12:27:07;;;;;;;2.75;2.55;;;25.90;94.10;;;;;;5062426;28;20198;-77
2022/09/04 12:29:59;;;;;;;3.75;2.72;;;26.00;93.70;;;;;;5046159;28;20226;-76
2022/09/04 12:33:05;;;;;;;4.18;2.72;;;26.40;93.50;;;;;;5045439;28;20989;-76
2022/09/04 12:36:05;;;;;;;2.50;2.30;;;26.70;92.50;;;;;;5049094;28;20210;-76
2022/09/04 12:39:14;;;;;;;2.92;2.60;;;26.60;92.20;;;;;;5062940;28;20237;-76
2022/09/04 12:41:54;;;;;;;2.75;2.42;;;26.70;92.00;;;;;;5046800;28;20198;-76
2022/09/04 12:44:35;;;;;;;2.40;2.20;;;26.70;90.90;;;;;;5048401;28;20201;-76
2022/09/04 12:47:14;;;;;;;2.60;2.40;;;26.80;90.80;;;;;;5061498;28;20195;-76
2022/09/04 12:49:57;;;;;;;2.65;2.45;;;27.40;90.10;;;;;;5050710;28;20711;-76
2022/09/04 12:52:42;;;;;;;2.78;2.58;;;27.70;86.60;;;;;;5058000;28;20210;-76
2022/09/04 12:55:22;;;;;;;2.22;2.13;;;27.30;87.20;;;;;;5048613;28;20652;-76
2022/09/04 12:58:02;;;;;;;3.10;2.80;;;27.60;87.10;;;;;;5068372;28;20218;-76
2022/09/04 13:00:39;;;;;;;3.05;2.70;;;27.40;86.90;;;;;;5065711;28;20229;-76
2022/09/04 13:03:16;;;;;;;2.60;2.40;;;26.90;89.20;;;;;;5057348;28;20530;-76
2022/09/04 13:06:03;;;;;;;3.05;2.75;;;26.70;90.10;;;;;;5068112;28;20197;-76
2022/09/04 13:08:40;;;;;;;2.50;2.30;;;26.50;91.20;;;;;;5059741;28;20218;-76
2022/09/04 13:11:22;;;;;;;3.90;2.90;;;26.40;91.50;;;;;;5045926;28;20645;-76
2022/09/04 13:13:55;;;;;;;4.25;2.67;;;26.50;91.00;;;;;;5049096;28;20191;-76
2022/09/04 13:16:31;;;;;;;2.50;2.30;;;26.50;90.50;;;;;;5052551;28;20209;-76
2022/09/04 13:19:10;;;;;;;4.35;2.88;;;26.80;90.00;;;;;;5050034;28;20218;-77
2022/09/04 13:21:54;;;;;;;2.70;2.50;;;27.00;89.10;;;;;;5042453;28;20211;-77
2022/09/04 13:24:34;;;;;;;3.20;2.50;;;27.00;88.80;;;;;;5070450;28;20205;-76
2022/09/04 13:27:28;;;;;;;2.40;2.20;;;26.80;88.90;;;;;;5056146;28;20219;-76
2022/09/04 13:30:05;;;;;;;3.42;2.55;;;27.00;88.50;;;;;;5053150;28;20218;-76
2022/09/04 13:33:05;;;;;;;2.47;2.28;;;27.40;87.00;;;;;;5050826;28;20190;-76
2022/09/04 13:35:52;;;;;;;3.13;2.30;;;28.00;84.90;;;;;;5048229;28;20570;-76
2022/09/04 13:38:49;;;;;;;2.50;2.30;;;28.30;81.30;;;;;;5064539;28;20225;-76
2022/09/04 13:41:41;;;;;;;2.85;2.50;;;28.60;80.30;;;;;;5051629;28;20206;-76
2022/09/04 13:44:31;;;;;;;2.80;2.60;;;28.60;80.00;;;;;;5054518;28;20578;-76
2022/09/04 13:47:04;;;;;;;2.60;2.40;;;28.60;79.30;;;;;;5046471;28;20202;-77
2022/09/04 13:49:38;;;;;;;3.90;2.88;;;29.30;76.60;;;;;;5051204;28;20233;-76
2022/09/04 13:52:10;;;;;;;2.63;2.40;;;30.00;73.60;;;;;;5070564;28;20206;-77
2022/09/04 13:54:59;;;;;;;5.53;2.60;;;29.70;72.20;;;;;;5053046;28;20191;-77
2022/09/04 13:57:30;;;;;;;2.63;2.42;;;30.30;68.90;;;;;;5053890;28;20206;-77
2022/09/04 14:00:02;;;;;;;2.70;2.45;;;30.20;69.10;;;;;;5068301;28;20214;-77
2022/09/04 14:02:33;;;;;;;2.72;2.20;;;30.70;68.00;;;;;;5056332;28;20198;-77
2022/09/04 14:05:07;;;;;;;2.08;1.98;;;31.20;65.50;;;;;;5057833;28;20202;-77
2022/09/04 14:07:40;;;;;;;2.50;2.20;;;31.80;62.30;;;;;;5051834;28;20194;-77
2022/09/04 14:10:12;;;;;;;2.30;2.10;;;31.80;59.80;;;;;;5071617;28;20235;-77
2022/09/04 14:13:07;;;;;;;2.78;2.50;;;31.30;59.60;;;;;;5052315;28;20210;-77
2022/09/04 14:16:02;;;;;;;2.25;2.10;;;31.30;59.70;;;;;;5056524;28;20202;-77
2022/09/04 14:19:10;;;;;;;2.47;2.30;;;31.00;60.70;;;;;;5060948;28;20223;-77
2022/09/04 14:22:10;;;;;;;2.42;2.22;;;30.60;58.30;;;;;;5044704;28;20206;-77
2022/09/04 14:24:56;;;;;;;4.40;2.35;;;30.50;59.60;;;;;;5033622;28;20206;-77